»·PEaware :: SWQ291 CYVR-KSAN

SWQ291 :: CYVR-KSAN

FLIGHT INFORMATION

Flight Status: Arrived
Operator: Unknown
More flights by this operator :: More flights under this callsign
Pilot: Evan J. (56)
Aircraft: Unknown
(FA7X)
More flights by this aircraft type
Origin: CYVR Vancouver Intl
Canada
Destination: KSAN San Diego Intl-Lindbergh
United States
More flights between these airports :: More routes between these airports
Route: YVR J5 SUMMA LAX HUBRD1
File this flight plan on PilotEdge
Remarks:
Altitude:
(Current/Filed)
49,000ft
Speed:
(Current/Filed)
290kts
Departed: 13-Aug-11 05:17 PM
Arrived: 13-Aug-11 07:43 PM
Distance/Time
Traveled:
1024nm/2:25
Distance/Time
To Go:
Arrived

Flight Plot

Page will automatically refresh every two minutes.


Map Options




Map Legend


Flown Route
Filed Route
Departure Airport
Arrival Airport
Navaid (VOR, NDB)
Fix

Horizontal Profiles

Position Reports

Time Latitude Longitude Heading Altitude Ground
Speed
13-Aug-11 17:06 49.196343 -123.157692 11 18ft 0kts
13-Aug-11 17:07 49.196343 -123.157692 11 18ft 0kts
13-Aug-11 17:08 49.196343 -123.157692 11 18ft 0kts
13-Aug-11 17:09 49.196343 -123.157692 11 18ft 0kts
13-Aug-11 17:10 49.196343 -123.157692 11 18ft 0kts
13-Aug-11 17:11 49.196343 -123.157692 11 18ft 0kts
13-Aug-11 17:12 49.196905 -123.157899 299 18ft 10kts
13-Aug-11 17:13 49.198708 -123.163448 278 18ft 43kts
13-Aug-11 17:14 49.200823 -123.182511 280 18ft 63kts
13-Aug-11 17:15 49.202601 -123.197866 279 18ft 32kts
13-Aug-11 17:16 49.205041 -123.200974 89 18ft 3kts
13-Aug-11 17:17 49.205039 -123.200916 94 18ft 0kts
13-Aug-11 17:18 49.203543 -123.187741 100 18ft 125kts
13-Aug-11 17:19 49.191576 -123.098922 107 4486ft 262kts
13-Aug-11 17:20 49.132318 -123.094087 214 12776ft 309kts
13-Aug-11 17:21 49.057368 -123.163842 175 23472ft 338kts
13-Aug-11 17:22 48.966922 -123.130706 158 31061ft 368kts
13-Aug-11 17:23 48.865470 -123.079246 159 35685ft 427kts
13-Aug-11 17:24 48.747548 -123.019492 160 40669ft 450kts
13-Aug-11 17:25 48.631913 -122.961127 160 45191ft 437kts
13-Aug-11 17:26 48.518421 -122.904139 162 48278ft 435kts
13-Aug-11 17:27 48.400062 -122.844984 162 48489ft 458kts
13-Aug-11 17:28 48.282484 -122.786513 163 49072ft 460kts
13-Aug-11 17:29 48.161005 -122.726376 164 49121ft 465kts
13-Aug-11 17:30 48.036544 -122.665109 164 49124ft 476kts
13-Aug-11 17:31 47.910875 -122.603547 164 49124ft 484kts
13-Aug-11 17:34 47.558395 -122.432873 165 49118ft 491kts
13-Aug-11 17:35 47.407541 -122.360432 165 49118ft 493kts
13-Aug-11 17:36 47.305065 -122.311460 164 49122ft 495kts
13-Aug-11 17:37 47.175399 -122.249782 164 49121ft 496kts
13-Aug-11 17:38 47.044243 -122.187720 164 49121ft 497kts
13-Aug-11 17:39 46.916532 -122.127590 164 49110ft 501kts
13-Aug-11 17:40 46.783108 -122.065104 164 49112ft 508kts
13-Aug-11 17:41 46.647797 -122.002061 164 49113ft 513kts
13-Aug-11 17:42 46.510177 -121.951253 169 49114ft 514kts
13-Aug-11 17:43 46.370270 -121.903607 169 49114ft 516kts
13-Aug-11 17:44 46.237846 -121.858709 169 49112ft 517kts
13-Aug-11 17:45 46.097945 -121.811510 169 49113ft 518kts
13-Aug-11 17:46 45.958013 -121.764510 171 49117ft 520kts
13-Aug-11 17:47 45.817875 -121.717733 173 49119ft 516kts
13-Aug-11 17:48 45.678727 -121.671520 174 49120ft 512kts
13-Aug-11 17:49 45.541862 -121.626293 174 49120ft 508kts
13-Aug-11 17:50 45.403827 -121.580906 175 49121ft 506kts
13-Aug-11 17:51 45.273311 -121.538207 175 49124ft 505kts
13-Aug-11 17:52 45.144817 -121.496690 176 49111ft 503kts
13-Aug-11 17:53 45.008507 -121.452455 176 49110ft 502kts
13-Aug-11 17:54 44.870668 -121.408005 175 48952ft 516kts
13-Aug-11 17:55 44.729500 -121.362691 175 48953ft 525kts
13-Aug-11 17:56 44.586326 -121.316964 175 48954ft 531kts
13-Aug-11 17:57 44.442259 -121.271186 175 48955ft 534kts
13-Aug-11 17:58 44.309990 -121.229473 169 48983ft 476kts
13-Aug-11 17:59 44.181359 -121.188902 164 48995ft 480kts
13-Aug-11 18:00 44.048659 -121.147284 164 48999ft 501kts
13-Aug-11 18:01 43.910296 -121.104147 164 49018ft 518kts
13-Aug-11 18:02 43.768341 -121.060084 164 49020ft 530kts
13-Aug-11 18:03 43.623268 -121.015280 164 49021ft 538kts
13-Aug-11 18:04 43.476735 -120.970251 164 49022ft 543kts
13-Aug-11 18:05 43.335489 -120.927060 164 49017ft 545kts
13-Aug-11 18:06 43.187309 -120.881966 164 49016ft 546kts
13-Aug-11 18:07 43.039347 -120.837162 164 49018ft 547kts
13-Aug-11 18:08 42.890973 -120.792455 164 49019ft 547kts
13-Aug-11 18:09 42.742838 -120.748061 163 49111ft 539kts
13-Aug-11 18:10 42.599997 -120.705410 164 49103ft 515kts
13-Aug-11 18:11 42.462101 -120.664449 165 49103ft 504kts
13-Aug-11 18:12 42.332986 -120.626269 165 49107ft 499kts
13-Aug-11 18:13 42.197554 -120.586392 165 49108ft 498kts
13-Aug-11 18:14 42.062363 -120.546760 166 49107ft 498kts
13-Aug-11 18:15 41.927140 -120.507292 166 49107ft 497kts
13-Aug-11 18:16 41.797451 -120.469907 166 49108ft 497kts
13-Aug-11 18:17 41.663301 -120.430988 168 49089ft 494kts
13-Aug-11 18:18 41.529727 -120.392507 171 49083ft 491kts
13-Aug-11 18:19 41.395011 -120.353869 173 49087ft 502kts
13-Aug-11 18:20 41.263797 -120.316379 173 49093ft 513kts
13-Aug-11 18:21 41.123071 -120.276335 174 49093ft 521kts
13-Aug-11 18:22 40.980781 -120.236021 174 49093ft 526kts
13-Aug-11 18:23 40.837642 -120.195646 174 49091ft 529kts
13-Aug-11 18:24 40.693755 -120.155239 174 49094ft 530kts
13-Aug-11 18:25 40.573736 -120.121671 174 49094ft 531kts
13-Aug-11 18:26 40.429003 -120.081355 174 49094ft 532kts
13-Aug-11 18:27 40.291383 -120.043183 174 49095ft 532kts
13-Aug-11 18:28 40.146653 -120.003212 174 49096ft 532kts
13-Aug-11 18:29 40.001892 -119.963424 172 49096ft 539kts
13-Aug-11 18:30 39.855233 -119.923262 172 49095ft 543kts
13-Aug-11 18:31 39.707174 -119.882900 171 49095ft 544kts
13-Aug-11 18:32 39.559402 -119.842794 171 49096ft 544kts
13-Aug-11 18:33 39.411061 -119.802711 171 49096ft 545kts
13-Aug-11 18:34 39.269478 -119.764611 171 49094ft 545kts
13-Aug-11 18:35 39.121204 -119.724885 171 49095ft 545kts
13-Aug-11 18:36 38.973661 -119.685518 171 49116ft 543kts
13-Aug-11 18:37 38.827042 -119.646565 172 49127ft 538kts
13-Aug-11 18:38 38.681662 -119.608110 172 49127ft 533kts
13-Aug-11 18:39 38.537010 -119.570004 172 49128ft 529kts
13-Aug-11 18:40 38.393399 -119.532329 172 49181ft 526kts
13-Aug-11 18:41 38.259488 -119.497358 170 49257ft 542kts
13-Aug-11 18:42 38.115904 -119.459962 169 49254ft 549kts
13-Aug-11 18:43 37.966724 -119.421534 169 49250ft 549kts
13-Aug-11 18:44 37.818068 -119.383145 168 49259ft 547kts
13-Aug-11 18:45 37.667388 -119.344384 170 49294ft 557kts
13-Aug-11 18:46 37.515207 -119.305423 171 49295ft 562kts
13-Aug-11 18:47 37.362166 -119.266403 172 49297ft 564kts
13-Aug-11 18:48 37.214230 -119.228832 172 49290ft 563kts
13-Aug-11 18:49 37.060857 -119.190044 172 49292ft 563kts
13-Aug-11 18:50 36.907902 -119.151519 172 49294ft 563kts
13-Aug-11 18:51 36.754373 -119.113008 172 49295ft 563kts
13-Aug-11 18:52 36.601237 -119.074752 172 49292ft 563kts
13-Aug-11 18:53 36.449010 -119.036886 171 48865ft 552kts
13-Aug-11 18:54 36.306350 -119.001514 170 48861ft 544kts
13-Aug-11 18:55 36.158262 -118.964951 170 48901ft 546kts
13-Aug-11 18:56 36.008950 -118.928226 170 48902ft 550kts
13-Aug-11 18:58 35.708116 -118.854659 169 48905ft 554kts
13-Aug-11 18:59 35.557046 -118.817923 170 48876ft 554kts
13-Aug-11 19:00 35.406547 -118.781478 170 48877ft 550kts
13-Aug-11 19:01 35.264786 -118.747264 170 48871ft 542kts
13-Aug-11 19:02 35.117406 -118.711833 170 48874ft 541kts
13-Aug-11 19:03 34.970144 -118.676555 171 49116ft 548kts
13-Aug-11 19:04 34.820417 -118.640826 171 49118ft 553kts
13-Aug-11 19:05 34.674679 -118.606157 172 47227ft 514kts
13-Aug-11 19:06 34.533761 -118.572786 172 45337ft 520kts
13-Aug-11 19:07 34.399526 -118.541090 172 43425ft 457kts
13-Aug-11 19:08 34.288321 -118.514911 170 41456ft 395kts
13-Aug-11 19:09 34.182937 -118.490161 168 39507ft 396kts
13-Aug-11 19:10 34.075922 -118.465089 167 37554ft 400kts
13-Aug-11 19:11 33.971414 -118.440639 169 35579ft 372kts
13-Aug-11 19:12 33.894695 -118.382437 137 33755ft 364kts
13-Aug-11 19:13 33.845740 -118.319680 138 32330ft 360kts
13-Aug-11 19:15 33.817545 -118.283533 138 31503ft 359kts
13-Aug-11 19:16 33.817545 -118.283533 138 31503ft 359kts
13-Aug-11 19:17 33.747912 -118.194424 138 29471ft 358kts
13-Aug-11 19:18 33.692092 -118.123149 138 27821ft 351kts
13-Aug-11 19:19 33.626810 -118.039975 138 25854ft 342kts
13-Aug-11 19:20 33.564072 -117.960179 139 23865ft 317kts
13-Aug-11 19:21 33.505821 -117.886331 139 21877ft 300kts
13-Aug-11 19:22 33.449474 -117.815088 139 19855ft 288kts
13-Aug-11 19:23 33.395709 -117.747803 138 17848ft 276kts
13-Aug-11 19:24 33.345305 -117.685395 138 15920ft 267kts
13-Aug-11 19:25 33.294950 -117.623605 138 13942ft 249kts
13-Aug-11 19:26 33.249199 -117.567381 138 11933ft 228kts
13-Aug-11 19:27 33.205408 -117.513953 138 10270ft 224kts
13-Aug-11 19:28 33.162303 -117.461837 138 8692ft 222kts
13-Aug-11 19:29 33.117770 -117.415465 171 7489ft 213kts
13-Aug-11 19:30 33.059252 -117.405924 176 6311ft 213kts
13-Aug-11 19:31 33.000156 -117.398941 177 5128ft 232kts
13-Aug-11 19:32 32.933106 -117.392927 177 4551ft 242kts
13-Aug-11 19:33 32.867155 -117.387174 177 3963ft 240kts
13-Aug-11 19:34 32.806911 -117.381844 178 2790ft 197kts
13-Aug-11 19:35 32.771964 -117.353270 99 2053ft 171kts
13-Aug-11 19:36 32.760226 -117.299696 106 1759ft 160kts
13-Aug-11 19:37 32.748790 -117.252478 108 1024ft 145kts
13-Aug-11 19:38 32.738326 -117.209283 109 221ft 134kts
13-Aug-11 19:39 32.732724 -117.187197 163 18ft 2kts
13-Aug-11 19:40 32.731174 -117.183405 115 18ft 24kts
13-Aug-11 19:41 32.729534 -117.181390 219 18ft 0kts

Navigation Log

Ident Type
1. CYVR Airport
2. YVR Navaid
3. SEA Navaid
4. TAOMA Fix
5. SUMMA Fix
6. LAX Navaid
7. OTISS Fix
8. HUBRD Fix
9. CARDI Fix
10. TORIE Fix
11. KSAN Airport